Wetterdaten: Woche 09.11.20 - 15.11.20 (KW46)
Datum Zeit Temp. A. Feuchte A. Luftdruck Regen Wind Richtung Taupunkt Windchill Windben
11.11.2020 15:00 0,0 C 0 % 1026,8 hPa 0,0 l/m 0,0 km/h N -60,0 C 0,0 C 0,0 km/h
11.11.2020 16:00 0,0 C 0 % 1026,6 hPa 0,0 l/m 0,0 km/h N -60,0 C 0,0 C 0,0 km/h
11.11.2020 17:00 0,0 C 0 % 1026,4 hPa 0,0 l/m 0,0 km/h N -60,0 C 0,0 C 0,0 km/h
11.11.2020 18:00 0,0 C 0 % 1026,3 hPa 0,0 l/m 0,0 km/h N -60,0 C 0,0 C 0,0 km/h
11.11.2020 19:00 0,0 C 0 % 1026,2 hPa 0,0 l/m 0,0 km/h N -60,0 C 0,0 C 0,0 km/h
11.11.2020 20:00 0,0 C 0 % 1026,0 hPa 0,0 l/m 0,0 km/h N -60,0 C 0,0 C 0,0 km/h
11.11.2020 21:00 0,0 C 0 % 1025,8 hPa 0,0 l/m 0,0 km/h N -60,0 C 0,0 C 0,0 km/h
11.11.2020 22:00 0,0 C 0 % 1025,5 hPa 0,0 l/m 0,0 km/h N -60,0 C 0,0 C 0,0 km/h
11.11.2020 23:00 0,0 C 0 % 1025,3 hPa 0,0 l/m 0,0 km/h N -60,0 C 0,0 C 0,0 km/h
12.11.2020 00:00 0,0 C 0 % 1025,0 hPa 0,0 l/m 0,0 km/h N -60,0 C 0,0 C 0,0 km/h
12.11.2020 01:00 0,0 C 0 % 1024,8 hPa 0,0 l/m 0,0 km/h N -60,0 C 0,0 C 0,0 km/h
12.11.2020 02:00 0,0 C 0 % 1024,4 hPa 0,0 l/m 0,0 km/h N -60,0 C 0,0 C 0,0 km/h
12.11.2020 03:00 0,0 C 0 % 1024,2 hPa 0,0 l/m 0,0 km/h N -60,0 C 0,0 C 0,0 km/h
12.11.2020 04:00 0,0 C 0 % 1023,9 hPa 0,0 l/m 0,0 km/h N -60,0 C 0,0 C 0,0 km/h
12.11.2020 05:00 0,0 C 0 % 1023,8 hPa 0,0 l/m 0,0 km/h N -60,0 C 0,0 C 0,0 km/h
12.11.2020 06:00 0,0 C 0 % 1023,7 hPa 0,0 l/m 0,0 km/h N -60,0 C 0,0 C 0,0 km/h
12.11.2020 07:00 0,0 C 0 % 1023,9 hPa 0,0 l/m 0,0 km/h N -60,0 C 0,0 C 0,0 km/h
12.11.2020 08:00 0,0 C 0 % 1024,1 hPa 0,0 l/m 0,0 km/h N -60,0 C 0,0 C 0,0 km/h
12.11.2020 09:00 4,4 C 59 % 1024,7 hPa 0,0 l/m 0,2 km/h N -13,1 C 4,4 C 2,8 km/h
12.11.2020 10:00 6,3 C 79 % 1025,3 hPa 0,3 l/m 0,3 km/h N 2,9 C 6,3 C 4,0 km/h
12.11.2020 11:00 6,7 C 78 % 1025,0 hPa 0,0 l/m 0,3 km/h N 3,0 C 6,7 C 5,6 km/h
12.11.2020 12:00 7,3 C 77 % 1024,7 hPa 0,0 l/m 0,0 km/h N 3,5 C 7,3 C 2,4 km/h
12.11.2020 13:00 7,9 C 75 % 1024,3 hPa 0,0 l/m 0,0 km/h N 3,8 C 7,9 C 0,4 km/h
12.11.2020 14:00 8,1 C 75 % 1024,0 hPa 0,0 l/m 0,0 km/h N 3,9 C 8,1 C 2,0 km/h
12.11.2020 15:00 8,0 C 76 % 1024,1 hPa 0,0 l/m 0,0 km/h N 4,0 C 8,0 C 0,0 km/h
12.11.2020 16:00 7,2 C 77 % 1024,3 hPa 0,0 l/m 0,0 km/h N 3,5 C 7,2 C 0,0 km/h
12.11.2020 17:00 6,2 C 79 % 1024,6 hPa 0,0 l/m 0,0 km/h N 2,8 C 6,2 C 0,0 km/h
12.11.2020 18:00 6,3 C 81 % 1024,8 hPa 0,0 l/m 0,0 km/h N 3,3 C 6,3 C 0,0 km/h
12.11.2020 19:00 6,4 C 81 % 1025,0 hPa 0,0 l/m 0,0 km/h N 3,4 C 6,4 C 0,0 km/h
12.11.2020 20:00 6,4 C 81 % 1025,2 hPa 0,0 l/m 0,0 km/h N 3,4 C 6,4 C 0,0 km/h
12.11.2020 21:00 6,3 C 82 % 1025,4 hPa 0,0 l/m 0,0 km/h N 3,5 C 6,3 C 0,0 km/h
12.11.2020 22:00 6,2 C 82 % 1025,5 hPa 0,0 l/m 0,0 km/h N 3,4 C 6,2 C 0,0 km/h
12.11.2020 23:00 6,2 C 82 % 1025,4 hPa 0,0 l/m 0,0 km/h N 3,3 C 6,2 C 0,0 km/h
13.11.2020 00:00 6,3 C 82 % 1025,3 hPa 0,0 l/m 0,0 km/h N 3,4 C 6,3 C 0,0 km/h
13.11.2020 01:00 6,4 C 83 % 1025,2 hPa 0,0 l/m 0,0 km/h N 3,7 C 6,4 C 0,0 km/h
13.11.2020 02:00 6,5 C 83 % 1024,9 hPa 0,0 l/m 0,0 km/h N 3,8 C 6,5 C 0,0 km/h
13.11.2020 03:00 6,6 C 82 % 1024,7 hPa 0,0 l/m 0,0 km/h N 3,8 C 6,6 C 0,0 km/h
13.11.2020 04:00 6,0 C 83 % 1024,8 hPa 0,0 l/m 0,0 km/h N 3,3 C 6,0 C 0,0 km/h
13.11.2020 05:00 5,6 C 83 % 1024,6 hPa 0,0 l/m 0,0 km/h N 3,0 C 5,6 C 0,0 km/h
13.11.2020 06:00 4,9 C 83 % 1024,7 hPa 0,0 l/m 0,0 km/h N 2,2 C 4,9 C 0,0 km/h
13.11.2020 07:00 4,8 C 82 % 1024,8 hPa 0,0 l/m 0,0 km/h N 2,0 C 4,8 C 0,4 km/h
13.11.2020 08:00 5,5 C 82 % 1025,2 hPa 0,0 l/m 0,0 km/h N 2,7 C 5,5 C 0,0 km/h
13.11.2020 09:00 6,5 C 82 % 1025,1 hPa 0,0 l/m 0,0 km/h N 3,6 C 6,5 C 0,4 km/h
13.11.2020 10:00 7,6 C 82 % 1024,9 hPa 0,0 l/m 0,0 km/h N 4,8 C 7,6 C 1,6 km/h
13.11.2020 11:00 8,5 C 81 % 1024,8 hPa 0,0 l/m 0,1 km/h N 5,4 C 8,5 C 2,4 km/h
13.11.2020 12:00 8,0 C 80 % 1024,5 hPa 0,0 l/m 0,4 km/h N 4,7 C 8,0 C 4,4 km/h
13.11.2020 13:00 7,3 C 81 % 1024,4 hPa 0,0 l/m 0,2 km/h N 4,3 C 7,3 C 2,8 km/h
13.11.2020 14:00 6,7 C 82 % 1024,2 hPa 0,0 l/m 0,3 km/h N 3,8 C 6,7 C 4,4 km/h
13.11.2020 15:00 6,2 C 82 % 1024,3 hPa 0,0 l/m 0,1 km/h N 3,3 C 6,2 C 4,8 km/h
13.11.2020 16:00 5,7 C 83 % 1024,5 hPa 0,0 l/m 0,2 km/h N 3,0 C 5,7 C 5,6 km/h
13.11.2020 17:00 5,6 C 83 % 1024,7 hPa 0,0 l/m 0,0 km/h N 3,0 C 5,6 C 2,4 km/h
13.11.2020 18:00 5,6 C 83 % 1024,9 hPa 0,0 l/m 0,1 km/h N 2,9 C 5,6 C 2,8 km/h
13.11.2020 19:00 5,5 C 82 % 1024,9 hPa 0,0 l/m 0,0 km/h N 2,7 C 5,5 C 2,4 km/h
13.11.2020 20:00 5,4 C 82 % 1024,9 hPa 0,0 l/m 0,0 km/h N 2,5 C 5,4 C 0,4 km/h
13.11.2020 21:00 5,3 C 82 % 1024,9 hPa 0,0 l/m 0,0 km/h N 2,5 C 5,3 C 0,8 km/h
13.11.2020 22:00 5,3 C 82 % 1024,7 hPa 0,0 l/m 0,0 km/h N 2,4 C 5,3 C 0,8 km/h
13.11.2020 23:00 4,9 C 82 % 1024,8 hPa 0,0 l/m 0,0 km/h N 2,1 C 4,9 C 0,0 km/h
14.11.2020 00:00 4,8 C 82 % 1024,9 hPa 0,0 l/m 0,0 km/h N 1,9 C 4,8 C 0,0 km/h
14.11.2020 01:00 4,7 C 82 % 1024,9 hPa 0,0 l/m 0,0 km/h N 1,9 C 4,7 C 0,0 km/h
14.11.2020 02:00 4,7 C 82 % 1025,0 hPa 0,0 l/m 0,0 km/h N 1,9 C 4,7 C 0,0 km/h
14.11.2020 03:00 4,7 C 82 % 1024,7 hPa 0,0 l/m 0,0 km/h N 1,9 C 4,7 C 0,0 km/h
14.11.2020 04:00 4,7 C 82 % 1024,8 hPa 0,0 l/m 0,0 km/h N 1,9 C 4,7 C 0,0 km/h
14.11.2020 05:00 4,6 C 82 % 1025,0 hPa 0,0 l/m 0,0 km/h N 1,8 C 4,6 C 0,0 km/h
14.11.2020 06:00 4,7 C 82 % 1025,2 hPa 0,0 l/m 0,0 km/h N 1,9 C 4,7 C 0,0 km/h
14.11.2020 07:00 4,7 C 82 % 1025,4 hPa 0,0 l/m 0,0 km/h N 1,9 C 4,7 C 0,0 km/h
14.11.2020 08:00 5,0 C 82 % 1025,7 hPa 0,0 l/m 0,0 km/h N 2,1 C 5,0 C 1,2 km/h
14.11.2020 09:00 5,4 C 82 % 1025,9 hPa 0,0 l/m 0,0 km/h N 2,6 C 5,4 C 2,0 km/h
14.11.2020 10:00 6,1 C 82 % 1025,9 hPa 0,0 l/m 0,0 km/h N 3,3 C 6,1 C 0,0 km/h
14.11.2020 11:00 6,7 C 82 % 1025,5 hPa 0,0 l/m 0,0 km/h N 3,8 C 6,7 C 0,0 km/h
14.11.2020 12:00 7,4 C 82 % 1024,8 hPa 0,0 l/m 0,0 km/h N 4,5 C 7,4 C 0,4 km/h
14.11.2020 13:00 8,0 C 81 % 1024,6 hPa 0,0 l/m 0,0 km/h N 4,9 C 8,0 C 0,0 km/h
14.11.2020 14:00 8,4 C 82 % 1024,4 hPa 0,0 l/m 0,0 km/h N 5,5 C 8,4 C 1,2 km/h
14.11.2020 15:00 8,1 C 82 % 1024,6 hPa 0,0 l/m 0,0 km/h N 5,2 C 8,1 C 0,8 km/h
14.11.2020 16:00 7,5 C 82 % 1024,6 hPa 0,0 l/m 0,0 km/h N 4,6 C 7,5 C 0,4 km/h
14.11.2020 17:00 7,1 C 82 % 1024,4 hPa 0,0 l/m 0,0 km/h N 4,2 C 7,1 C 2,4 km/h
14.11.2020 18:00 6,8 C 82 % 1024,2 hPa 0,0 l/m 0,1 km/h N 4,0 C 6,8 C 3,6 km/h
14.11.2020 19:00 6,7 C 82 % 1024,1 hPa 0,0 l/m 0,0 km/h N 3,8 C 6,7 C 2,8 km/h
14.11.2020 20:00 6,5 C 82 % 1024,1 hPa 0,0 l/m 0,0 km/h N 3,6 C 6,5 C 3,2 km/h
14.11.2020 21:00 6,5 C 82 % 1024,3 hPa 0,0 l/m 0,0 km/h N 3,7 C 6,5 C 0,0 km/h
14.11.2020 22:00 6,6 C 82 % 1024,3 hPa 0,0 l/m 0,0 km/h N 3,7 C 6,6 C 0,0 km/h
14.11.2020 23:00 6,4 C 82 % 1024,1 hPa 0,0 l/m 0,0 km/h N 3,5 C 6,4 C 1,2 km/h
15.11.2020 00:00 6,2 C 82 % 1023,9 hPa 0,0 l/m 0,0 km/h N 3,3 C 6,2 C 0,0 km/h
15.11.2020 01:00 5,8 C 82 % 1023,6 hPa 0,0 l/m 0,0 km/h N 3,0 C 5,8 C 0,0 km/h
15.11.2020 02:00 5,7 C 82 % 1023,1 hPa 0,0 l/m 0,0 km/h N 2,8 C 5,7 C 0,0 km/h
15.11.2020 03:00 5,6 C 82 % 1022,8 hPa 0,0 l/m 0,0 km/h N 2,8 C 5,6 C 1,6 km/h
15.11.2020 04:00 5,4 C 82 % 1022,8 hPa 0,0 l/m 0,0 km/h N 2,6 C 5,4 C 0,0 km/h
15.11.2020 05:00 5,3 C 82 % 1022,7 hPa 0,0 l/m 0,0 km/h N 2,5 C 5,3 C 0,4 km/h
15.11.2020 06:00 5,3 C 82 % 1022,7 hPa 0,0 l/m 0,1 km/h N 2,5 C 5,3 C 4,0 km/h
15.11.2020 07:00 5,3 C 82 % 1022,8 hPa 0,0 l/m 0,0 km/h N 2,5 C 5,3 C 0,8 km/h
15.11.2020 08:00 5,5 C 82 % 1022,9 hPa 0,0 l/m 0,1 km/h N 2,6 C 5,5 C 4,8 km/h
15.11.2020 09:00 5,6 C 82 % 1022,8 hPa 0,0 l/m 0,1 km/h N 2,8 C 5,6 C 4,8 km/h
15.11.2020 10:00 5,7 C 82 % 1022,6 hPa 0,0 l/m 0,0 km/h N 2,8 C 5,7 C 2,0 km/h
15.11.2020 11:00 6,1 C 82 % 1022,3 hPa 0,0 l/m 0,0 km/h N 3,3 C 6,1 C 4,0 km/h
15.11.2020 12:00 6,4 C 82 % 1021,8 hPa 0,0 l/m 0,0 km/h N 3,5 C 6,4 C 9,6 km/h
15.11.2020 13:00 6,6 C 82 % 1021,1 hPa 0,0 l/m 0,0 km/h N 3,8 C 6,6 C 4,0 km/h
15.11.2020 14:00 6,9 C 83 % 1020,2 hPa 0,0 l/m 0,0 km/h N 4,2 C 6,9 C 2,4 km/h
15.11.2020 15:00 7,3 C 83 % 1019,8 hPa 0,0 l/m 0,0 km/h N 4,5 C 7,3 C 4,0 km/h
15.11.2020 16:00 7,2 C 82 % 1019,0 hPa 0,0 l/m 0,0 km/h N 4,3 C 7,2 C 5,6 km/h
15.11.2020 17:00 7,2 C 82 % 1018,5 hPa 0,0 l/m 0,0 km/h N 4,3 C 7,2 C 4,8 km/h
15.11.2020 18:00 7,2 C 82 % 1017,8 hPa 0,0 l/m 1,6 km/h N 4,3 C 7,2 C 8,0 km/h
15.11.2020 19:00 7,1 C 82 % 1017,2 hPa 0,0 l/m 1,6 km/h N 4,3 C 7,1 C 10,4 km/h
15.11.2020 20:00 7,1 C 82 % 1016,7 hPa 0,0 l/m 0,8 km/h N 4,3 C 7,1 C 7,2 km/h
15.11.2020 21:00 7,3 C 83 % 1016,1 hPa 0,0 l/m 0,0 km/h N 4,6 C 7,3 C 8,9 km/h
15.11.2020 22:00 7,5 C 82 % 1015,5 hPa 0,0 l/m 0,0 km/h N 4,6 C 7,5 C 4,8 km/h
15.11.2020 23:00 7,6 C 82 % 1015,2 hPa 0,0 l/m 0,0 km/h N 4,7 C 7,6 C 1,6 km/h
Min-Datum _ 11.11.20 11.11.20 15.11.20 - 11.11.20 - 11.11.20 11.11.20 11.11.20
_ Min-Zeit 15:30 15:30 23:00 - 15:30 - 15:30 15:30 15:30
Minimum _ 0,0 C 0 % 1015,1 hPa - 0,0 km/h - -60,0 C 0,0 C 0,0 km/h
Max-Datum _ 13.11.20 13.11.20 11.11.20 12.11.20 15.11.20 - 13.11.20 13.11.20 15.11.20
_ Max-Zeit 11:30 01:00 15:30 10:00 18:00 - 11:30 11:30 12:00
Maximum _ 8,7 C 83 % 1026,8 hPa 0,3 l/m 1,6 km/h
N
- 5,6 C 8,7 C 14,5 km/h
N
Durchschnitt _ 5,2 C 67 % 1023,9 hPa #0,3 l/m 0,1 km/h N -7,7 C 5,2 C 1,6 km/h